Country
Station

 

Weather  for  Frontone  -  Italy    Italy

  
22 °C (72 °F)
    
 
 

Current METAR for Frontone is :

LIVF 161855Z 33011KT 9999 SCT014CB 22/17 Q1012

 

This is a report for Frontone - Italy.
 
The report was made 16 hours and 19 minutes ago, at 18:55 UTC .
The wind was blowing at a speed of 5.7 meters per second (12.7 miles per hour) from north/northwest (330°).
 
The temperature was 22 °C (72 °F), with a dew-point at 17 °C (63 °F).
The temperature felt like 23 °C (74 °F).
 
The atmospheric pressure was 1012 hPa (29.88 inHg).
The relative humidity was 73.3%.
 
There were scattered cumulonimbus clouds at a height of 427 meters (1400 feet).
 
The overall visibility was greater than 10 kilometers (6.2 miles).
 

 
 
 
 

Country :   A   B   C   D   E   F   G   H   I   J   K   L   M   N   O   P   Q   R   S   T   U   V   W   Y   Z

 

Site Info  |  Disclaimer  |  Credits  |  Privacy
Contact us  |  Add to favorites
© 2013-2018 METARs - All rights reserved